Archival Weather

Chicago O'Hare International

Chicago, Illinois (KORD)

Report from: Thursday, June 23, 2022 10:51 AM CDT
Current time: Sunday, June 26, 2022 1:04 PM CDT

Current weather
Weather history
Weather forecast

Temperature27.8°C (82.0°F)
Heat index27.5°C (81.5°F)
Dew point11.1°C (52.0°F)
Winds 6 kts (3.1 m/s, 6.9 mph) East (80°)
Visibility10 mi. (16.1 km)
Clouds Few clouds 25,000 ft. (7,620 m)
Altimeter30.07 in.Hg (1018 mB)
Relative humidity35 %
Density altitude1,493 ft. (455 m)
Sea-level pressure101.8 kPa (1018 mB, 30.05 in.Hg)
Remarks Automated weather observing station with precipitation discriminator
Flight conditions Visual Meteorological Conditions
Raw dataKORD 231551Z 08006KT 10SM FEW250 28/11 A3007 RMK AO2 SLP176 T02780111
An error has occurred. This application may no longer respond until reloaded. Reload 🗙